DPL weather

Dipolog Airport
Dipolog City, Zamboanga del Norte Province, Philippines

Public forecast

Using degrees Celsius for public forecast. Weather courtesy of forecast.io.

METAR (pilot weather report)

Closest report is Sibulan Airport, 44.0 nm (81.5 km) N. Retrieved 2019/05/25 06:00 UTC (38 minutes ago):

RPVD 250600Z 09010KT 9999 TS SCT014CB SCT070 OVC220 32/26 Q1007 RMK A2974 CB SE/SW/W/NNW

TAF (pilot weather forecast)

Closest forecast is Sibulan Airport, 44.0 nm (81.5 km) N. Retrieved 2019/05/25 06:00 UTC (38 minutes ago):

TAF RPVD 250500Z 2506/2606 07006KT 9999 FEW015 SCT080 BKN220 TEMPO 2506/2512 14010KT FEW014CB SCT015 BKN070